sensor_id;sensor_type;location;lat;lon;timestamp;P1;durP1;ratioP1;P2;durP2;ratioP2
18997;SDS011;9632;51.018;4.284;2022-08-19T00:00:20;14.45;;;10.10;;
18997;SDS011;9632;51.018;4.284;2022-08-19T00:02:45;12.60;;;9.45;;
18997;SDS011;9632;51.018;4.284;2022-08-19T00:05:13;13.38;;;10.57;;
18997;SDS011;9632;51.018;4.284;2022-08-19T00:07:40;13.60;;;10.38;;
18997;SDS011;9632;51.018;4.284;2022-08-19T00:10:08;14.25;;;10.85;;
18997;SDS011;9632;51.018;4.284;2022-08-19T00:12:34;16.77;;;11.73;;
18997;SDS011;9632;51.018;4.284;2022-08-19T00:15:01;16.48;;;11.40;;
18997;SDS011;9632;51.018;4.284;2022-08-19T00:17:27;15.00;;;11.07;;
18997;SDS011;9632;51.018;4.284;2022-08-19T00:19:52;17.35;;;11.73;;
18997;SDS011;9632;51.018;4.284;2022-08-19T00:22:18;17.20;;;11.73;;
18997;SDS011;9632;51.018;4.284;2022-08-19T00:24:47;20.15;;;13.85;;
18997;SDS011;9632;51.018;4.284;2022-08-19T00:27:13;17.48;;;12.18;;
18997;SDS011;9632;51.018;4.284;2022-08-19T00:29:38;15.27;;;11.93;;
18997;SDS011;9632;51.018;4.284;2022-08-19T00:32:04;20.23;;;13.38;;
18997;SDS011;9632;51.018;4.284;2022-08-19T00:34:31;19.17;;;13.65;;
18997;SDS011;9632;51.018;4.284;2022-08-19T00:36:57;19.38;;;13.65;;
18997;SDS011;9632;51.018;4.284;2022-08-19T00:39:23;23.00;;;15.55;;
18997;SDS011;9632;51.018;4.284;2022-08-19T00:41:49;21.90;;;14.52;;
18997;SDS011;9632;51.018;4.284;2022-08-19T00:44:17;24.67;;;15.98;;
18997;SDS011;9632;51.018;4.284;2022-08-19T00:46:49;27.77;;;18.08;;
18997;SDS011;9632;51.018;4.284;2022-08-19T00:51:50;24.10;;;16.92;;
18997;SDS011;9632;51.018;4.284;2022-08-19T00:54:19;27.13;;;17.80;;
18997;SDS011;9632;51.018;4.284;2022-08-19T00:56:47;25.60;;;17.17;;
18997;SDS011;9632;51.018;4.284;2022-08-19T00:59:13;26.08;;;17.15;;
18997;SDS011;9632;51.018;4.284;2022-08-19T01:01:41;25.05;;;16.92;;
18997;SDS011;9632;51.018;4.284;2022-08-19T01:04:08;29.02;;;18.35;;
18997;SDS011;9632;51.018;4.284;2022-08-19T01:06:35;29.98;;;19.05;;
18997;SDS011;9632;51.018;4.284;2022-08-19T01:09:02;28.25;;;19.13;;
18997;SDS011;9632;51.018;4.284;2022-08-19T01:11:28;31.17;;;20.75;;
18997;SDS011;9632;51.018;4.284;2022-08-19T01:13:57;36.22;;;22.13;;
18997;SDS011;9632;51.018;4.284;2022-08-19T01:16:23;33.10;;;20.65;;
18997;SDS011;9632;51.018;4.284;2022-08-19T01:18:52;28.17;;;18.98;;
18997;SDS011;9632;51.018;4.284;2022-08-19T01:21:34;26.52;;;18.55;;
18997;SDS011;9632;51.018;4.284;2022-08-19T01:24:07;28.83;;;19.95;;
18997;SDS011;9632;51.018;4.284;2022-08-19T01:26:37;31.33;;;19.70;;
18997;SDS011;9632;51.018;4.284;2022-08-19T01:29:08;29.27;;;19.08;;
18997;SDS011;9632;51.018;4.284;2022-08-19T01:31:35;26.98;;;17.73;;
18997;SDS011;9632;51.018;4.284;2022-08-19T01:34:01;29.88;;;19.20;;
18997;SDS011;9632;51.018;4.284;2022-08-19T01:39:02;33.53;;;20.90;;
18997;SDS011;9632;51.018;4.284;2022-08-19T01:41:29;30.98;;;20.13;;
18997;SDS011;9632;51.018;4.284;2022-08-19T01:43:55;33.03;;;21.70;;
18997;SDS011;9632;51.018;4.284;2022-08-19T01:46:21;33.70;;;20.17;;
18997;SDS011;9632;51.018;4.284;2022-08-19T01:48:46;40.50;;;22.55;;
18997;SDS011;9632;51.018;4.284;2022-08-19T01:51:12;39.10;;;23.15;;
18997;SDS011;9632;51.018;4.284;2022-08-19T01:53:38;42.95;;;25.08;;
18997;SDS011;9632;51.018;4.284;2022-08-19T01:56:05;37.25;;;23.58;;
18997;SDS011;9632;51.018;4.284;2022-08-19T01:58:36;37.03;;;22.35;;
18997;SDS011;9632;51.018;4.284;2022-08-19T02:01:06;33.20;;;20.60;;
18997;SDS011;9632;51.018;4.284;2022-08-19T02:03:33;43.42;;;26.10;;
18997;SDS011;9632;51.018;4.284;2022-08-19T02:06:00;36.30;;;23.20;;
18997;SDS011;9632;51.018;4.284;2022-08-19T02:08:27;35.05;;;22.65;;
18997;SDS011;9632;51.018;4.284;2022-08-19T02:10:54;40.50;;;24.27;;
18997;SDS011;9632;51.018;4.284;2022-08-19T02:13:19;38.33;;;24.02;;
18997;SDS011;9632;51.018;4.284;2022-08-19T02:15:45;39.47;;;24.85;;
18997;SDS011;9632;51.018;4.284;2022-08-19T02:18:11;41.08;;;24.80;;
18997;SDS011;9632;51.018;4.284;2022-08-19T02:20:38;39.50;;;23.77;;
18997;SDS011;9632;51.018;4.284;2022-08-19T02:23:04;37.42;;;23.80;;
18997;SDS011;9632;51.018;4.284;2022-08-19T02:25:30;38.08;;;23.65;;
18997;SDS011;9632;51.018;4.284;2022-08-19T02:27:56;38.65;;;23.75;;
18997;SDS011;9632;51.018;4.284;2022-08-19T02:30:22;41.13;;;24.15;;
18997;SDS011;9632;51.018;4.284;2022-08-19T02:32:49;35.88;;;22.80;;
18997;SDS011;9632;51.018;4.284;2022-08-19T02:35:15;35.85;;;21.85;;
18997;SDS011;9632;51.018;4.284;2022-08-19T02:37:42;39.38;;;23.15;;
18997;SDS011;9632;51.018;4.284;2022-08-19T02:40:27;37.38;;;22.02;;
18997;SDS011;9632;51.018;4.284;2022-08-19T02:42:53;34.38;;;21.33;;
18997;SDS011;9632;51.018;4.284;2022-08-19T02:45:19;34.78;;;21.73;;
18997;SDS011;9632;51.018;4.284;2022-08-19T02:47:45;35.75;;;21.45;;
18997;SDS011;9632;51.018;4.284;2022-08-19T02:50:11;37.50;;;21.40;;
18997;SDS011;9632;51.018;4.284;2022-08-19T02:52:37;33.20;;;19.30;;
18997;SDS011;9632;51.018;4.284;2022-08-19T02:55:03;32.55;;;19.75;;
18997;SDS011;9632;51.018;4.284;2022-08-19T02:57:30;33.22;;;19.95;;
18997;SDS011;9632;51.018;4.284;2022-08-19T02:59:56;40.22;;;22.88;;
18997;SDS011;9632;51.018;4.284;2022-08-19T03:02:22;32.10;;;19.00;;
18997;SDS011;9632;51.018;4.284;2022-08-19T03:04:48;29.90;;;18.48;;
18997;SDS011;9632;51.018;4.284;2022-08-19T03:07:14;31.67;;;19.75;;
18997;SDS011;9632;51.018;4.284;2022-08-19T03:09:41;36.08;;;20.88;;
18997;SDS011;9632;51.018;4.284;2022-08-19T03:12:07;33.35;;;19.48;;
18997;SDS011;9632;51.018;4.284;2022-08-19T03:14:33;36.45;;;21.00;;
18997;SDS011;9632;51.018;4.284;2022-08-19T03:16:59;36.95;;;20.67;;
18997;SDS011;9632;51.018;4.284;2022-08-19T03:19:26;31.60;;;19.58;;
18997;SDS011;9632;51.018;4.284;2022-08-19T03:21:52;30.23;;;17.52;;
18997;SDS011;9632;51.018;4.284;2022-08-19T03:24:18;32.53;;;18.92;;
18997;SDS011;9632;51.018;4.284;2022-08-19T03:26:46;30.60;;;18.08;;
18997;SDS011;9632;51.018;4.284;2022-08-19T03:29:13;31.00;;;18.35;;
18997;SDS011;9632;51.018;4.284;2022-08-19T03:31:40;29.13;;;17.08;;
18997;SDS011;9632;51.018;4.284;2022-08-19T03:34:14;28.88;;;16.85;;
18997;SDS011;9632;51.018;4.284;2022-08-19T03:36:42;29.15;;;17.08;;
18997;SDS011;9632;51.018;4.284;2022-08-19T03:39:09;31.00;;;18.33;;
18997;SDS011;9632;51.018;4.284;2022-08-19T03:41:37;28.83;;;16.50;;
18997;SDS011;9632;51.018;4.284;2022-08-19T03:44:04;27.90;;;17.00;;
18997;SDS011;9632;51.018;4.284;2022-08-19T03:46:30;28.92;;;16.27;;
18997;SDS011;9632;51.018;4.284;2022-08-19T03:48:58;29.42;;;17.08;;
18997;SDS011;9632;51.018;4.284;2022-08-19T03:51:30;31.73;;;19.40;;
18997;SDS011;9632;51.018;4.284;2022-08-19T03:54:00;29.13;;;17.63;;
18997;SDS011;9632;51.018;4.284;2022-08-19T03:56:28;30.33;;;17.00;;
18997;SDS011;9632;51.018;4.284;2022-08-19T03:58:54;29.15;;;17.67;;
18997;SDS011;9632;51.018;4.284;2022-08-19T04:01:22;29.95;;;17.88;;
18997;SDS011;9632;51.018;4.284;2022-08-19T04:03:51;30.08;;;18.00;;
18997;SDS011;9632;51.018;4.284;2022-08-19T04:06:19;29.23;;;17.40;;
18997;SDS011;9632;51.018;4.284;2022-08-19T04:08:46;36.90;;;17.98;;
18997;SDS011;9632;51.018;4.284;2022-08-19T04:11:14;26.65;;;16.80;;
18997;SDS011;9632;51.018;4.284;2022-08-19T04:13:42;29.60;;;16.60;;
18997;SDS011;9632;51.018;4.284;2022-08-19T04:16:10;27.73;;;16.63;;
18997;SDS011;9632;51.018;4.284;2022-08-19T04:18:36;28.55;;;16.83;;
18997;SDS011;9632;51.018;4.284;2022-08-19T04:21:03;28.83;;;15.80;;
18997;SDS011;9632;51.018;4.284;2022-08-19T04:23:31;30.42;;;15.85;;
18997;SDS011;9632;51.018;4.284;2022-08-19T04:25:57;24.58;;;14.23;;
18997;SDS011;9632;51.018;4.284;2022-08-19T04:28:23;22.55;;;14.30;;
18997;SDS011;9632;51.018;4.284;2022-08-19T04:30:50;23.67;;;14.70;;
18997;SDS011;9632;51.018;4.284;2022-08-19T04:33:19;23.80;;;13.80;;
18997;SDS011;9632;51.018;4.284;2022-08-19T04:35:48;23.67;;;14.20;;
18997;SDS011;9632;51.018;4.284;2022-08-19T04:38:15;25.17;;;14.32;;
18997;SDS011;9632;51.018;4.284;2022-08-19T04:40:47;20.73;;;12.27;;
18997;SDS011;9632;51.018;4.284;2022-08-19T04:43:33;24.95;;;14.55;;
18997;SDS011;9632;51.018;4.284;2022-08-19T04:46:09;23.02;;;13.63;;
18997;SDS011;9632;51.018;4.284;2022-08-19T04:48:38;24.65;;;13.30;;
18997;SDS011;9632;51.018;4.284;2022-08-19T04:51:08;22.65;;;12.65;;
18997;SDS011;9632;51.018;4.284;2022-08-19T04:53:37;25.83;;;14.15;;
18997;SDS011;9632;51.018;4.284;2022-08-19T04:56:06;22.80;;;13.60;;
18997;SDS011;9632;51.018;4.284;2022-08-19T04:58:39;19.38;;;12.35;;
18997;SDS011;9632;51.018;4.284;2022-08-19T05:01:08;20.42;;;12.40;;
18997;SDS011;9632;51.018;4.284;2022-08-19T05:03:36;24.52;;;13.05;;
18997;SDS011;9632;51.018;4.284;2022-08-19T05:06:07;22.33;;;12.13;;
18997;SDS011;9632;51.018;4.284;2022-08-19T05:08:35;20.08;;;12.80;;
18997;SDS011;9632;51.018;4.284;2022-08-19T05:11:07;21.80;;;12.25;;
18997;SDS011;9632;51.018;4.284;2022-08-19T05:13:34;21.17;;;12.00;;
18997;SDS011;9632;51.018;4.284;2022-08-19T05:16:00;22.23;;;12.25;;
18997;SDS011;9632;51.018;4.284;2022-08-19T05:18:26;19.63;;;11.35;;
18997;SDS011;9632;51.018;4.284;2022-08-19T05:21:11;20.10;;;11.95;;
18997;SDS011;9632;51.018;4.284;2022-08-19T05:23:57;22.95;;;12.43;;
18997;SDS011;9632;51.018;4.284;2022-08-19T05:26:23;19.10;;;11.88;;
18997;SDS011;9632;51.018;4.284;2022-08-19T05:28:51;21.58;;;12.02;;
18997;SDS011;9632;51.018;4.284;2022-08-19T05:31:18;24.17;;;13.65;;
18997;SDS011;9632;51.018;4.284;2022-08-19T05:33:44;24.05;;;13.70;;
18997;SDS011;9632;51.018;4.284;2022-08-19T05:36:10;28.83;;;14.73;;
18997;SDS011;9632;51.018;4.284;2022-08-19T05:38:36;23.80;;;14.35;;
18997;SDS011;9632;51.018;4.284;2022-08-19T05:41:06;22.55;;;12.82;;
18997;SDS011;9632;51.018;4.284;2022-08-19T05:43:36;22.38;;;12.48;;
18997;SDS011;9632;51.018;4.284;2022-08-19T05:46:03;23.95;;;14.52;;
18997;SDS011;9632;51.018;4.284;2022-08-19T05:48:31;21.23;;;13.40;;
18997;SDS011;9632;51.018;4.284;2022-08-19T05:51:06;24.63;;;14.00;;
18997;SDS011;9632;51.018;4.284;2022-08-19T05:53:33;26.27;;;13.93;;
18997;SDS011;9632;51.018;4.284;2022-08-19T05:56:03;24.58;;;13.43;;
18997;SDS011;9632;51.018;4.284;2022-08-19T05:58:30;20.95;;;12.57;;
18997;SDS011;9632;51.018;4.284;2022-08-19T06:00:57;21.27;;;11.55;;
18997;SDS011;9632;51.018;4.284;2022-08-19T06:03:29;19.58;;;11.45;;
18997;SDS011;9632;51.018;4.284;2022-08-19T06:05:58;24.83;;;13.55;;
18997;SDS011;9632;51.018;4.284;2022-08-19T06:08:25;21.85;;;11.57;;
18997;SDS011;9632;51.018;4.284;2022-08-19T06:10:51;23.50;;;11.98;;
18997;SDS011;9632;51.018;4.284;2022-08-19T06:13:17;17.40;;;10.20;;
18997;SDS011;9632;51.018;4.284;2022-08-19T06:15:44;18.00;;;10.30;;
18997;SDS011;9632;51.018;4.284;2022-08-19T06:18:11;19.88;;;10.60;;
18997;SDS011;9632;51.018;4.284;2022-08-19T06:20:41;20.80;;;10.40;;
18997;SDS011;9632;51.018;4.284;2022-08-19T06:23:07;18.15;;;9.63;;
18997;SDS011;9632;51.018;4.284;2022-08-19T06:25:34;21.23;;;10.63;;
18997;SDS011;9632;51.018;4.284;2022-08-19T06:28:00;18.23;;;9.32;;
18997;SDS011;9632;51.018;4.284;2022-08-19T06:30:26;18.88;;;9.80;;
18997;SDS011;9632;51.018;4.284;2022-08-19T06:32:52;18.95;;;9.85;;
18997;SDS011;9632;51.018;4.284;2022-08-19T06:35:18;19.00;;;9.93;;
18997;SDS011;9632;51.018;4.284;2022-08-19T06:37:44;15.32;;;9.80;;
18997;SDS011;9632;51.018;4.284;2022-08-19T06:40:10;14.90;;;9.27;;
18997;SDS011;9632;51.018;4.284;2022-08-19T06:42:37;14.43;;;9.00;;
18997;SDS011;9632;51.018;4.284;2022-08-19T06:45:03;18.90;;;9.43;;
18997;SDS011;9632;51.018;4.284;2022-08-19T06:47:29;16.05;;;8.85;;
18997;SDS011;9632;51.018;4.284;2022-08-19T06:49:57;16.90;;;8.77;;
18997;SDS011;9632;51.018;4.284;2022-08-19T06:52:33;16.90;;;8.70;;
18997;SDS011;9632;51.018;4.284;2022-08-19T06:55:00;18.02;;;9.43;;
18997;SDS011;9632;51.018;4.284;2022-08-19T06:57:26;23.35;;;10.45;;
18997;SDS011;9632;51.018;4.284;2022-08-19T06:59:53;21.92;;;9.80;;
18997;SDS011;9632;51.018;4.284;2022-08-19T07:02:21;18.77;;;9.88;;
18997;SDS011;9632;51.018;4.284;2022-08-19T07:04:51;21.83;;;10.77;;
18997;SDS011;9632;51.018;4.284;2022-08-19T07:07:17;16.52;;;8.65;;
18997;SDS011;9632;51.018;4.284;2022-08-19T07:09:45;19.25;;;10.27;;
18997;SDS011;9632;51.018;4.284;2022-08-19T07:12:12;20.70;;;9.98;;
18997;SDS011;9632;51.018;4.284;2022-08-19T07:14:42;23.80;;;10.35;;
18997;SDS011;9632;51.018;4.284;2022-08-19T07:17:09;19.70;;;9.98;;
18997;SDS011;9632;51.018;4.284;2022-08-19T07:19:35;18.20;;;10.10;;
18997;SDS011;9632;51.018;4.284;2022-08-19T07:22:03;18.10;;;9.95;;
18997;SDS011;9632;51.018;4.284;2022-08-19T07:24:30;19.70;;;10.35;;
18997;SDS011;9632;51.018;4.284;2022-08-19T07:26:58;16.58;;;9.27;;
18997;SDS011;9632;51.018;4.284;2022-08-19T07:29:27;16.88;;;9.63;;
18997;SDS011;9632;51.018;4.284;2022-08-19T07:31:55;15.05;;;8.48;;
18997;SDS011;9632;51.018;4.284;2022-08-19T07:34:21;15.38;;;8.40;;
18997;SDS011;9632;51.018;4.284;2022-08-19T07:36:48;20.23;;;10.25;;
18997;SDS011;9632;51.018;4.284;2022-08-19T07:39:19;16.73;;;8.60;;
18997;SDS011;9632;51.018;4.284;2022-08-19T07:41:50;16.40;;;8.73;;
18997;SDS011;9632;51.018;4.284;2022-08-19T07:44:16;14.60;;;8.75;;
18997;SDS011;9632;51.018;4.284;2022-08-19T07:46:43;18.88;;;8.60;;
18997;SDS011;9632;51.018;4.284;2022-08-19T07:49:10;13.30;;;7.68;;
18997;SDS011;9632;51.018;4.284;2022-08-19T07:51:42;16.67;;;7.82;;
18997;SDS011;9632;51.018;4.284;2022-08-19T07:54:08;14.27;;;7.55;;
18997;SDS011;9632;51.018;4.284;2022-08-19T07:56:34;11.40;;;6.43;;
18997;SDS011;9632;51.018;4.284;2022-08-19T07:59:00;13.98;;;7.13;;
18997;SDS011;9632;51.018;4.284;2022-08-19T08:01:26;11.85;;;6.15;;
18997;SDS011;9632;51.018;4.284;2022-08-19T08:03:53;15.25;;;6.45;;
18997;SDS011;9632;51.018;4.284;2022-08-19T08:06:38;13.65;;;6.03;;
18997;SDS011;9632;51.018;4.284;2022-08-19T08:09:24;10.75;;;5.63;;
18997;SDS011;9632;51.018;4.284;2022-08-19T08:12:03;11.35;;;6.00;;
18997;SDS011;9632;51.018;4.284;2022-08-19T08:14:46;12.27;;;5.85;;
18997;SDS011;9632;51.018;4.284;2022-08-19T08:17:15;9.80;;;5.82;;
18997;SDS011;9632;51.018;4.284;2022-08-19T08:19:43;11.10;;;5.93;;
18997;SDS011;9632;51.018;4.284;2022-08-19T08:22:10;11.90;;;5.65;;
18997;SDS011;9632;51.018;4.284;2022-08-19T08:24:55;11.52;;;5.30;;
18997;SDS011;9632;51.018;4.284;2022-08-19T08:27:23;19.52;;;5.97;;
18997;SDS011;9632;51.018;4.284;2022-08-19T08:29:49;15.07;;;6.30;;
18997;SDS011;9632;51.018;4.284;2022-08-19T08:32:15;9.77;;;5.30;;
18997;SDS011;9632;51.018;4.284;2022-08-19T08:34:41;11.82;;;4.78;;
18997;SDS011;9632;51.018;4.284;2022-08-19T08:37:07;9.32;;;5.47;;
18997;SDS011;9632;51.018;4.284;2022-08-19T08:39:33;11.57;;;5.50;;
18997;SDS011;9632;51.018;4.284;2022-08-19T08:42:20;11.45;;;5.22;;
18997;SDS011;9632;51.018;4.284;2022-08-19T08:45:10;10.52;;;5.45;;
18997;SDS011;9632;51.018;4.284;2022-08-19T08:47:41;12.57;;;5.40;;
18997;SDS011;9632;51.018;4.284;2022-08-19T08:50:25;10.68;;;5.35;;
18997;SDS011;9632;51.018;4.284;2022-08-19T08:53:01;11.05;;;5.70;;
18997;SDS011;9632;51.018;4.284;2022-08-19T08:55:30;11.10;;;6.22;;
18997;SDS011;9632;51.018;4.284;2022-08-19T08:58:01;9.90;;;5.78;;
18997;SDS011;9632;51.018;4.284;2022-08-19T09:00:35;13.75;;;6.35;;
18997;SDS011;9632;51.018;4.284;2022-08-19T09:03:06;14.32;;;6.97;;
18997;SDS011;9632;51.018;4.284;2022-08-19T09:08:32;15.10;;;7.40;;
18997;SDS011;9632;51.018;4.284;2022-08-19T09:11:04;12.75;;;6.78;;
18997;SDS011;9632;51.018;4.284;2022-08-19T09:16:34;11.07;;;5.65;;
18997;SDS011;9632;51.018;4.284;2022-08-19T09:19:02;11.63;;;6.38;;
18997;SDS011;9632;51.018;4.284;2022-08-19T09:21:31;14.90;;;7.13;;
18997;SDS011;9632;51.018;4.284;2022-08-19T09:23:57;12.60;;;6.80;;
18997;SDS011;9632;51.018;4.284;2022-08-19T09:26:24;13.20;;;6.72;;
18997;SDS011;9632;51.018;4.284;2022-08-19T09:28:51;12.27;;;6.28;;
18997;SDS011;9632;51.018;4.284;2022-08-19T09:31:22;13.68;;;6.82;;
18997;SDS011;9632;51.018;4.284;2022-08-19T09:33:50;15.75;;;6.97;;
18997;SDS011;9632;51.018;4.284;2022-08-19T09:36:18;10.80;;;5.97;;
18997;SDS011;9632;51.018;4.284;2022-08-19T09:38:47;18.38;;;6.93;;
18997;SDS011;9632;51.018;4.284;2022-08-19T09:41:15;12.88;;;6.30;;
18997;SDS011;9632;51.018;4.284;2022-08-19T09:43:46;13.77;;;6.70;;
18997;SDS011;9632;51.018;4.284;2022-08-19T09:46:17;13.40;;;6.85;;
18997;SDS011;9632;51.018;4.284;2022-08-19T09:48:45;13.98;;;6.90;;
18997;SDS011;9632;51.018;4.284;2022-08-19T09:51:15;15.95;;;7.07;;
18997;SDS011;9632;51.018;4.284;2022-08-19T09:53:43;11.75;;;6.18;;
18997;SDS011;9632;51.018;4.284;2022-08-19T09:56:11;14.75;;;6.28;;
18997;SDS011;9632;51.018;4.284;2022-08-19T09:58:37;12.65;;;7.15;;
18997;SDS011;9632;51.018;4.284;2022-08-19T10:01:04;16.08;;;6.85;;
18997;SDS011;9632;51.018;4.284;2022-08-19T10:03:31;16.60;;;6.78;;
18997;SDS011;9632;51.018;4.284;2022-08-19T10:05:59;17.20;;;6.50;;
18997;SDS011;9632;51.018;4.284;2022-08-19T10:08:27;16.98;;;6.47;;
18997;SDS011;9632;51.018;4.284;2022-08-19T10:10:55;12.68;;;6.28;;
18997;SDS011;9632;51.018;4.284;2022-08-19T10:13:23;14.48;;;6.50;;
18997;SDS011;9632;51.018;4.284;2022-08-19T10:15:54;11.43;;;6.00;;
18997;SDS011;9632;51.018;4.284;2022-08-19T10:18:22;12.85;;;5.55;;
18997;SDS011;9632;51.018;4.284;2022-08-19T10:20:49;11.52;;;5.85;;
18997;SDS011;9632;51.018;4.284;2022-08-19T10:23:16;14.52;;;7.05;;
18997;SDS011;9632;51.018;4.284;2022-08-19T10:25:43;12.02;;;6.47;;
18997;SDS011;9632;51.018;4.284;2022-08-19T10:28:09;11.98;;;6.18;;
18997;SDS011;9632;51.018;4.284;2022-08-19T10:30:37;12.43;;;5.72;;
18997;SDS011;9632;51.018;4.284;2022-08-19T10:33:04;11.60;;;6.10;;
18997;SDS011;9632;51.018;4.284;2022-08-19T10:35:31;9.85;;;5.55;;
18997;SDS011;9632;51.018;4.284;2022-08-19T10:37:56;13.68;;;5.90;;
18997;SDS011;9632;51.018;4.284;2022-08-19T10:40:24;12.90;;;5.95;;
18997;SDS011;9632;51.018;4.284;2022-08-19T10:42:52;8.90;;;5.22;;
18997;SDS011;9632;51.018;4.284;2022-08-19T10:45:18;9.10;;;5.03;;
18997;SDS011;9632;51.018;4.284;2022-08-19T10:47:43;8.60;;;5.13;;
18997;SDS011;9632;51.018;4.284;2022-08-19T10:50:09;9.02;;;5.15;;
18997;SDS011;9632;51.018;4.284;2022-08-19T10:52:53;9.00;;;4.50;;
18997;SDS011;9632;51.018;4.284;2022-08-19T10:55:20;8.90;;;4.38;;
18997;SDS011;9632;51.018;4.284;2022-08-19T10:58:12;10.75;;;4.40;;
18997;SDS011;9632;51.018;4.284;2022-08-19T11:00:41;8.65;;;4.50;;
18997;SDS011;9632;51.018;4.284;2022-08-19T11:03:10;6.25;;;3.47;;
18997;SDS011;9632;51.018;4.284;2022-08-19T11:05:36;6.93;;;3.70;;
18997;SDS011;9632;51.018;4.284;2022-08-19T11:08:03;7.88;;;3.67;;
18997;SDS011;9632;51.018;4.284;2022-08-19T11:10:28;5.53;;;3.30;;
18997;SDS011;9632;51.018;4.284;2022-08-19T11:12:54;6.88;;;3.58;;
18997;SDS011;9632;51.018;4.284;2022-08-19T11:15:20;5.57;;;3.22;;
18997;SDS011;9632;51.018;4.284;2022-08-19T11:17:46;5.72;;;2.60;;
18997;SDS011;9632;51.018;4.284;2022-08-19T11:20:12;7.10;;;3.70;;
18997;SDS011;9632;51.018;4.284;2022-08-19T11:22:39;8.82;;;3.42;;
18997;SDS011;9632;51.018;4.284;2022-08-19T11:25:06;9.05;;;3.55;;
18997;SDS011;9632;51.018;4.284;2022-08-19T11:27:32;5.03;;;3.30;;
18997;SDS011;9632;51.018;4.284;2022-08-19T11:29:58;5.32;;;3.30;;
18997;SDS011;9632;51.018;4.284;2022-08-19T11:32:25;7.45;;;3.95;;
18997;SDS011;9632;51.018;4.284;2022-08-19T11:34:52;6.32;;;2.97;;
18997;SDS011;9632;51.018;4.284;2022-08-19T11:37:17;5.05;;;3.42;;
18997;SDS011;9632;51.018;4.284;2022-08-19T11:39:43;4.53;;;2.97;;
18997;SDS011;9632;51.018;4.284;2022-08-19T11:42:08;4.28;;;2.80;;
18997;SDS011;9632;51.018;4.284;2022-08-19T11:44:53;8.18;;;3.17;;
18997;SDS011;9632;51.018;4.284;2022-08-19T11:47:19;4.38;;;2.97;;
18997;SDS011;9632;51.018;4.284;2022-08-19T11:49:45;5.07;;;2.70;;
18997;SDS011;9632;51.018;4.284;2022-08-19T11:52:11;5.03;;;2.97;;
18997;SDS011;9632;51.018;4.284;2022-08-19T11:54:37;6.68;;;2.83;;
18997;SDS011;9632;51.018;4.284;2022-08-19T11:57:03;5.90;;;2.50;;
18997;SDS011;9632;51.018;4.284;2022-08-19T11:59:29;4.75;;;2.38;;
18997;SDS011;9632;51.018;4.284;2022-08-19T12:01:55;5.03;;;2.55;;
18997;SDS011;9632;51.018;4.284;2022-08-19T12:04:20;6.15;;;2.90;;
18997;SDS011;9632;51.018;4.284;2022-08-19T12:06:46;4.95;;;2.42;;
18997;SDS011;9632;51.018;4.284;2022-08-19T12:09:12;3.72;;;2.40;;
18997;SDS011;9632;51.018;4.284;2022-08-19T12:11:39;5.03;;;2.40;;
18997;SDS011;9632;51.018;4.284;2022-08-19T12:14:06;5.22;;;2.50;;
18997;SDS011;9632;51.018;4.284;2022-08-19T12:16:34;5.15;;;2.33;;
18997;SDS011;9632;51.018;4.284;2022-08-19T12:19:00;4.93;;;2.30;;
18997;SDS011;9632;51.018;4.284;2022-08-19T12:21:29;6.97;;;3.38;;
18997;SDS011;9632;51.018;4.284;2022-08-19T12:23:57;4.47;;;2.88;;
18997;SDS011;9632;51.018;4.284;2022-08-19T12:26:25;4.70;;;2.80;;
18997;SDS011;9632;51.018;4.284;2022-08-19T12:28:52;4.82;;;2.92;;
18997;SDS011;9632;51.018;4.284;2022-08-19T12:31:18;4.32;;;3.40;;
18997;SDS011;9632;51.018;4.284;2022-08-19T12:33:44;5.50;;;3.38;;
18997;SDS011;9632;51.018;4.284;2022-08-19T12:36:11;7.50;;;3.80;;
18997;SDS011;9632;51.018;4.284;2022-08-19T12:38:38;10.10;;;4.63;;
18997;SDS011;9632;51.018;4.284;2022-08-19T12:41:05;9.82;;;5.20;;
18997;SDS011;9632;51.018;4.284;2022-08-19T12:43:35;7.75;;;4.50;;
18997;SDS011;9632;51.018;4.284;2022-08-19T12:46:03;6.65;;;4.85;;
18997;SDS011;9632;51.018;4.284;2022-08-19T12:48:30;5.57;;;4.07;;
18997;SDS011;9632;51.018;4.284;2022-08-19T12:50:59;7.50;;;4.88;;
18997;SDS011;9632;51.018;4.284;2022-08-19T12:53:26;8.18;;;4.40;;
18997;SDS011;9632;51.018;4.284;2022-08-19T12:55:56;5.13;;;3.90;;
18997;SDS011;9632;51.018;4.284;2022-08-19T12:58:23;4.95;;;3.72;;
18997;SDS011;9632;51.018;4.284;2022-08-19T13:00:48;6.22;;;4.30;;
18997;SDS011;9632;51.018;4.284;2022-08-19T13:03:14;4.97;;;3.55;;
18997;SDS011;9632;51.018;4.284;2022-08-19T13:05:40;4.22;;;3.20;;
18997;SDS011;9632;51.018;4.284;2022-08-19T13:08:06;6.03;;;2.78;;
18997;SDS011;9632;51.018;4.284;2022-08-19T13:10:33;4.60;;;2.88;;
18997;SDS011;9632;51.018;4.284;2022-08-19T13:13:00;5.35;;;2.90;;
18997;SDS011;9632;51.018;4.284;2022-08-19T13:15:28;7.68;;;3.47;;
18997;SDS011;9632;51.018;4.284;2022-08-19T13:17:56;3.20;;;2.85;;
18997;SDS011;9632;51.018;4.284;2022-08-19T13:20:22;4.32;;;2.72;;
18997;SDS011;9632;51.018;4.284;2022-08-19T13:22:49;5.72;;;2.80;;
18997;SDS011;9632;51.018;4.284;2022-08-19T13:25:15;3.35;;;2.03;;
18997;SDS011;9632;51.018;4.284;2022-08-19T13:27:44;5.03;;;2.50;;
18997;SDS011;9632;51.018;4.284;2022-08-19T13:30:11;3.45;;;2.40;;
18997;SDS011;9632;51.018;4.284;2022-08-19T13:32:57;4.22;;;2.10;;
18997;SDS011;9632;51.018;4.284;2022-08-19T13:38:08;3.40;;;2.05;;
18997;SDS011;9632;51.018;4.284;2022-08-19T13:40:35;3.22;;;2.13;;
18997;SDS011;9632;51.018;4.284;2022-08-19T13:43:02;3.63;;;2.17;;
18997;SDS011;9632;51.018;4.284;2022-08-19T13:45:30;8.07;;;2.15;;
18997;SDS011;9632;51.018;4.284;2022-08-19T13:48:00;3.90;;;2.30;;
18997;SDS011;9632;51.018;4.284;2022-08-19T13:50:31;2.30;;;2.00;;
18997;SDS011;9632;51.018;4.284;2022-08-19T13:52:58;2.65;;;2.13;;
18997;SDS011;9632;51.018;4.284;2022-08-19T13:55:26;6.00;;;2.47;;
18997;SDS011;9632;51.018;4.284;2022-08-19T13:57:55;2.83;;;1.75;;
18997;SDS011;9632;51.018;4.284;2022-08-19T14:00:22;1.25;;;1.10;;
18997;SDS011;9632;51.018;4.284;2022-08-19T14:02:51;2.33;;;1.40;;
18997;SDS011;9632;51.018;4.284;2022-08-19T14:05:19;4.35;;;1.65;;
18997;SDS011;9632;51.018;4.284;2022-08-19T14:07:45;4.15;;;1.10;;
18997;SDS011;9632;51.018;4.284;2022-08-19T14:10:11;3.08;;;1.50;;
18997;SDS011;9632;51.018;4.284;2022-08-19T14:12:38;4.70;;;0.95;;
18997;SDS011;9632;51.018;4.284;2022-08-19T14:15:05;1.48;;;0.80;;
18997;SDS011;9632;51.018;4.284;2022-08-19T14:17:32;2.47;;;0.80;;
18997;SDS011;9632;51.018;4.284;2022-08-19T14:20:00;2.22;;;0.80;;
18997;SDS011;9632;51.018;4.284;2022-08-19T14:22:30;6.80;;;1.20;;
18997;SDS011;9632;51.018;4.284;2022-08-19T14:24:56;1.80;;;0.80;;
18997;SDS011;9632;51.018;4.284;2022-08-19T14:27:22;3.20;;;0.90;;
18997;SDS011;9632;51.018;4.284;2022-08-19T14:29:50;2.00;;;1.08;;
18997;SDS011;9632;51.018;4.284;2022-08-19T14:32:16;4.30;;;1.30;;
18997;SDS011;9632;51.018;4.284;2022-08-19T14:34:42;5.55;;;1.48;;
18997;SDS011;9632;51.018;4.284;2022-08-19T14:37:10;2.45;;;1.10;;
18997;SDS011;9632;51.018;4.284;2022-08-19T14:39:38;3.33;;;0.80;;
18997;SDS011;9632;51.018;4.284;2022-08-19T14:42:08;2.08;;;0.95;;
18997;SDS011;9632;51.018;4.284;2022-08-19T14:44:35;2.05;;;0.57;;
18997;SDS011;9632;51.018;4.284;2022-08-19T14:47:01;1.45;;;0.52;;
18997;SDS011;9632;51.018;4.284;2022-08-19T14:49:26;2.70;;;0.65;;
18997;SDS011;9632;51.018;4.284;2022-08-19T14:51:52;1.70;;;0.60;;
18997;SDS011;9632;51.018;4.284;2022-08-19T14:54:18;1.95;;;0.57;;
18997;SDS011;9632;51.018;4.284;2022-08-19T14:56:43;3.53;;;0.98;;
18997;SDS011;9632;51.018;4.284;2022-08-19T14:59:09;1.50;;;0.80;;
18997;SDS011;9632;51.018;4.284;2022-08-19T15:01:35;2.05;;;0.80;;
18997;SDS011;9632;51.018;4.284;2022-08-19T15:04:01;3.25;;;0.85;;